Time;durP1;ratioP1;P1;durP2;ratioP2;P2;SDS_P1;SDS_P2;PMS_P1;PMS_P2;Temp;Humidity;BMP_temperature;BMP_pressure;BME280_temperature;BME280_humidity;BME280_pressure;Samples;Min_cycle;Max_cycle;Signal;HPM_P1;HPM_P2
2023/01/27 00:01:07;;;;;;;27.80;15.18;;;-2.70;85.10;;;;;;5000452;28;20441;-65
2023/01/27 00:03:33;;;;;;;21.58;13.85;;;-2.70;85.90;;;;;;5014982;28;20376;-64
2023/01/27 00:06:00;;;;;;;26.80;16.33;;;-2.70;85.40;;;;;;5014190;28;20159;-65
2023/01/27 00:08:26;;;;;;;28.05;15.20;;;-2.70;85.60;;;;;;5023868;28;20109;-65
2023/01/27 00:13:44;;;;;;;19.95;12.00;;;-2.70;86.10;;;;;;5002934;28;20083;-67
2023/01/27 00:16:09;;;;;;;23.90;13.82;;;-2.70;86.30;;;;;;5015182;28;20038;-66
2023/01/27 00:18:35;;;;;;;22.90;14.75;;;-2.70;86.40;;;;;;5019022;28;20590;-66
2023/01/27 00:26:31;;;;;;;;;;;-2.60;85.90;;;;;;5008570;28;20386;-67
2023/01/27 00:28:57;;;;;;;22.95;14.20;;;-2.60;86.60;;;;;;5022135;28;19913;-66
2023/01/27 00:34:09;;;;;;;21.17;12.40;;;-2.70;87.50;;;;;;5016446;28;20048;-66
2023/01/27 00:36:38;;;;;;;21.88;12.73;;;-2.70;87.80;;;;;;5015324;28;20022;-65
2023/01/27 00:39:05;;;;;;;17.85;11.57;;;-2.70;87.10;;;;;;5017429;28;20084;-66
2023/01/27 00:41:32;;;;;;;19.05;10.20;;;-2.70;87.60;;;;;;5017502;28;20037;-66
2023/01/27 00:43:58;;;;;;;19.30;11.60;;;-2.70;88.30;;;;;;4993328;28;20482;-65
2023/01/27 00:46:24;;;;;;;19.05;11.80;;;-2.70;88.40;;;;;;5017765;28;20101;-67
2023/01/27 00:48:53;;;;;;;17.58;11.20;;;-2.70;88.70;;;;;;5017476;28;20447;-66
2023/01/27 00:51:19;;;;;;;17.00;10.15;;;-2.70;88.80;;;;;;4993391;28;20080;-66
2023/01/27 00:53:46;;;;;;;17.65;10.63;;;-2.70;88.90;;;;;;5011050;28;20033;-66
2023/01/27 00:56:11;;;;;;;19.35;11.07;;;-2.70;89.40;;;;;;5015091;28;20026;-66
2023/01/27 00:58:37;;;;;;;16.38;10.05;;;-2.80;90.90;;;;;;5016971;28;20038;-66
2023/01/27 01:01:09;;;;;;;16.15;10.50;;;-2.70;91.10;;;;;;5021669;28;20080;-65
2023/01/27 01:03:35;;;;;;;17.20;10.75;;;-2.80;92.10;;;;;;5022148;28;20117;-65
2023/01/27 01:06:04;;;;;;;19.83;10.68;;;-2.80;92.10;;;;;;5014833;28;20026;-65
2023/01/27 01:08:32;;;;;;;21.20;11.82;;;-2.80;92.20;;;;;;5018930;28;20054;-66
2023/01/27 01:10:58;;;;;;;29.35;17.30;;;-2.80;92.40;;;;;;5020366;28;20347;-66
2023/01/27 01:13:24;;;;;;;22.25;13.63;;;-2.70;91.10;;;;;;5018145;28;20037;-66
2023/01/27 01:15:49;;;;;;;27.75;15.80;;;-2.80;92.10;;;;;;5016032;28;20034;-66
2023/01/27 01:18:15;;;;;;;28.17;15.68;;;-2.90;91.10;;;;;;5004516;28;20084;-66
2023/01/27 01:20:43;;;;;;;27.88;16.85;;;-2.90;90.50;;;;;;5015739;28;20041;-66
2023/01/27 01:23:09;;;;;;;30.73;18.10;;;-2.80;89.20;;;;;;4997896;28;20033;-66
2023/01/27 01:25:35;;;;;;;32.78;19.15;;;-2.70;89.10;;;;;;5017147;28;20026;-66
2023/01/27 01:28:05;;;;;;;37.47;20.95;;;-2.60;88.70;;;;;;5016127;28;20022;-66
2023/01/27 01:30:33;;;;;;;22.95;13.50;;;-2.60;89.80;;;;;;5017646;28;20450;-66
2023/01/27 01:32:59;;;;;;;21.13;13.75;;;-2.60;89.90;;;;;;5028376;28;20030;-66
2023/01/27 01:35:24;;;;;;;19.70;12.27;;;-2.60;90.00;;;;;;5018746;28;20037;-66
2023/01/27 01:37:51;;;;;;;23.25;13.88;;;-2.60;92.00;;;;;;4985761;28;20124;-66
2023/01/27 01:40:17;;;;;;;26.15;15.23;;;-2.70;92.30;;;;;;5015483;28;20036;-66
2023/01/27 01:42:50;;;;;;;24.92;15.52;;;-2.70;92.50;;;;;;5014629;28;20033;-66
2023/01/27 01:45:30;;;;;;;25.35;14.70;;;-2.80;91.80;;;;;;4995454;28;20501;-66
2023/01/27 01:48:09;;;;;;;34.78;18.75;;;-2.80;91.30;;;;;;5011820;28;20029;-66
2023/01/27 01:50:37;;;;;;;43.33;22.08;;;-2.80;90.80;;;;;;5015409;28;20362;-66
2023/01/27 01:53:07;;;;;;;44.70;23.27;;;-2.80;89.70;;;;;;4994354;28;20038;-66
2023/01/27 01:55:35;;;;;;;38.42;21.55;;;-2.80;88.90;;;;;;5014996;28;20022;-66
2023/01/27 01:58:01;;;;;;;32.17;17.33;;;-2.80;87.80;;;;;;5013596;28;20327;-66
2023/01/27 02:00:27;;;;;;;25.55;15.38;;;-2.80;88.70;;;;;;5014660;28;20045;-65
2023/01/27 02:02:53;;;;;;;32.35;17.27;;;-2.80;88.00;;;;;;5013932;28;20319;-66
2023/01/27 02:05:28;;;;;;;24.95;14.57;;;-2.80;87.80;;;;;;5013540;28;20024;-66
2023/01/27 02:08:01;;;;;;;22.88;13.32;;;-2.70;87.50;;;;;;5011610;28;20077;-66
2023/01/27 02:10:27;;;;;;;32.75;18.45;;;-2.80;89.70;;;;;;5015292;28;20037;-66
2023/01/27 02:12:56;;;;;;;28.52;15.68;;;-2.70;89.70;;;;;;5017398;28;20029;-66
2023/01/27 02:15:21;;;;;;;23.35;14.02;;;-2.80;89.50;;;;;;5010842;28;20419;-66
2023/01/27 02:17:48;;;;;;;21.40;13.07;;;-2.70;89.10;;;;;;5020271;28;20118;-66
2023/01/27 02:20:20;;;;;;;18.92;11.18;;;-2.70;90.20;;;;;;5015263;28;20189;-66
2023/01/27 02:23:13;;;;;;;19.02;12.15;;;-2.70;91.70;;;;;;5013200;28;20100;-66
2023/01/27 02:25:57;;;;;;;16.70;10.48;;;-2.80;92.90;;;;;;4985968;28;20037;-66
2023/01/27 02:28:26;;;;;;;17.85;10.52;;;-2.80;92.50;;;;;;5013448;28;20450;-66
2023/01/27 02:30:52;;;;;;;17.00;10.23;;;-2.80;94.90;;;;;;5017161;28;20034;-66
2023/01/27 02:33:17;;;;;;;20.40;12.40;;;-2.80;94.60;;;;;;5012644;28;20304;-66
2023/01/27 02:36:09;;;;;;;20.20;12.43;;;-2.80;94.60;;;;;;5014338;28;20041;-66
2023/01/27 02:38:41;;;;;;;17.65;11.60;;;-2.80;94.00;;;;;;4986740;28;20033;-66
2023/01/27 02:41:44;;;;;;;23.00;12.57;;;-2.80;94.90;;;;;;5007549;28;20026;-66
2023/01/27 02:44:13;;;;;;;19.25;11.68;;;-2.90;94.10;;;;;;4951168;29;20027;-66
2023/01/27 02:46:38;;;;;;;21.15;13.15;;;-2.80;93.50;;;;;;4986563;28;20057;-66
2023/01/27 02:49:04;;;;;;;23.20;13.57;;;-2.80;95.00;;;;;;5012221;28;20328;-66
2023/01/27 02:51:29;;;;;;;23.88;14.23;;;-2.90;95.60;;;;;;5014199;28;20036;-66
2023/01/27 02:53:55;;;;;;;27.95;15.88;;;-3.00;94.80;;;;;;5014118;28;20415;-66
2023/01/27 02:56:22;;;;;;;26.83;15.75;;;-3.00;94.00;;;;;;5013603;28;20092;-65
2023/01/27 02:58:48;;;;;;;25.17;15.18;;;-3.00;93.00;;;;;;5014834;28;20442;-65
2023/01/27 03:01:13;;;;;;;28.10;17.55;;;-3.00;91.90;;;;;;5004974;28;20018;-65
2023/01/27 03:03:50;;;;;;;25.33;15.60;;;-2.90;91.50;;;;;;5014360;28;20026;-65
2023/01/27 03:06:16;;;;;;;22.73;14.27;;;-2.90;90.70;;;;;;5011154;28;20057;-67
2023/01/27 03:08:42;;;;;;;22.08;13.60;;;-2.80;91.30;;;;;;5010337;28;20065;-68
2023/01/27 03:11:09;;;;;;;21.08;13.77;;;-2.80;91.80;;;;;;5012617;28;20128;-66
2023/01/27 03:13:37;;;;;;;22.58;13.35;;;-2.70;93.50;;;;;;5013569;28;20121;-67
2023/01/27 03:18:49;;;;;;;25.30;15.90;;;-2.70;95.50;;;;;;5013180;28;20507;-67
2023/01/27 03:21:16;;;;;;;27.13;15.85;;;-2.80;94.60;;;;;;5013753;28;20617;-67
2023/01/27 03:23:50;;;;;;;24.35;14.68;;;-2.80;93.60;;;;;;5011653;28;20022;-66
2023/01/27 03:26:16;;;;;;;26.50;15.80;;;-2.80;92.50;;;;;;5013381;28;20029;-66
2023/01/27 03:28:41;;;;;;;27.52;15.32;;;-2.80;92.70;;;;;;5014369;28;20112;-66
2023/01/27 03:31:18;;;;;;;28.75;17.17;;;-2.80;92.40;;;;;;5016211;28;20025;-66
2023/01/27 03:33:46;;;;;;;32.20;17.48;;;-2.80;92.20;;;;;;5007000;28;20032;-66
2023/01/27 03:47:10;;;;;;;24.45;14.73;;;-2.80;91.90;;;;;;5012214;28;20100;-66
2023/01/27 03:49:36;;;;;;;28.02;16.33;;;-2.80;91.00;;;;;;4998688;28;20029;-66
2023/01/27 03:52:02;;;;;;;24.88;15.35;;;-2.80;92.60;;;;;;5007925;28;20100;-66
2023/01/27 03:54:27;;;;;;;27.10;16.30;;;-2.80;92.00;;;;;;5013617;28;20114;-66
2023/01/27 03:56:53;;;;;;;30.38;17.15;;;-2.80;92.00;;;;;;5013608;28;20033;-66
2023/01/27 03:59:19;;;;;;;32.50;18.65;;;-2.70;91.80;;;;;;5016933;28;20061;-66
2023/01/27 04:01:44;;;;;;;38.88;19.90;;;-2.60;92.80;;;;;;5009538;28;20483;-66
2023/01/27 04:06:59;;;;;;;36.22;20.42;;;-2.80;91.60;;;;;;5007346;28;20124;-66
2023/01/27 04:09:33;;;;;;;44.42;22.38;;;-2.80;90.70;;;;;;5013563;28;20033;-65
2023/01/27 04:12:01;;;;;;;34.05;18.65;;;-2.70;90.70;;;;;;5012804;28;20443;-66
2023/01/27 04:14:52;;;;;;;34.05;19.05;;;-2.80;90.30;;;;;;5013307;28;20030;-66
2023/01/27 04:17:18;;;;;;;36.63;20.77;;;-2.80;90.70;;;;;;5015339;28;20120;-66
2023/01/27 04:19:45;;;;;;;34.60;20.02;;;-2.80;90.00;;;;;;5018323;28;20112;-65
2023/01/27 04:22:17;;;;;;;38.33;21.48;;;-2.90;89.80;;;;;;5013146;28;20029;-65
2023/01/27 04:24:43;;;;;;;33.75;20.00;;;-2.90;89.50;;;;;;5007323;28;20038;-66
2023/01/27 04:27:14;;;;;;;40.15;20.75;;;-2.90;88.40;;;;;;5009838;28;20026;-66
2023/01/27 04:29:41;;;;;;;33.80;18.42;;;-2.80;88.90;;;;;;5012052;28;20382;-66
2023/01/27 04:32:09;;;;;;;32.97;18.90;;;-2.90;89.40;;;;;;5001725;28;20120;-66
2023/01/27 04:34:34;;;;;;;33.92;18.60;;;-2.90;88.80;;;;;;5017724;28;20030;-66
2023/01/27 04:37:02;;;;;;;38.28;21.15;;;-2.90;89.00;;;;;;5012309;28;20034;-65
2023/01/27 04:39:28;;;;;;;34.85;20.63;;;-2.80;89.50;;;;;;5017413;28;20026;-67
2023/01/27 04:41:55;;;;;;;32.85;19.75;;;-2.80;88.70;;;;;;5017708;28;20439;-66
2023/01/27 04:44:21;;;;;;;35.03;20.17;;;-2.80;88.20;;;;;;5035507;28;20307;-66
2023/01/27 04:46:47;;;;;;;34.05;19.48;;;-2.80;89.80;;;;;;5004440;28;20047;-66
2023/01/27 04:49:12;;;;;;;31.35;19.23;;;-2.70;88.80;;;;;;5018456;28;20022;-66
2023/01/27 04:51:38;;;;;;;36.30;19.73;;;-2.60;89.90;;;;;;5015519;28;20109;-66
2023/01/27 04:54:04;;;;;;;38.33;20.23;;;-2.70;89.40;;;;;;5012090;28;20027;-66
2023/01/27 04:56:39;;;;;;;43.83;23.33;;;-2.70;91.40;;;;;;5017124;28;20026;-66
2023/01/27 04:59:07;;;;;;;39.83;22.58;;;-2.80;90.60;;;;;;5016424;28;20022;-66
2023/01/27 05:01:33;;;;;;;42.72;24.20;;;-2.80;89.10;;;;;;5014836;28;20041;-66
2023/01/27 05:03:58;;;;;;;44.67;23.80;;;-2.70;88.60;;;;;;5017481;28;20080;-65
2023/01/27 05:06:25;;;;;;;38.08;21.10;;;-2.80;88.40;;;;;;5011998;28;20121;-66
2023/01/27 05:08:52;;;;;;;50.85;25.63;;;-2.80;87.10;;;;;;5013680;28;20366;-66
2023/01/27 05:11:17;;;;;;;54.08;26.58;;;-2.80;87.50;;;;;;4994589;28;20054;-66
2023/01/27 05:13:43;;;;;;;42.90;22.83;;;-2.80;87.40;;;;;;4998461;28;20026;-66
2023/01/27 05:16:11;;;;;;;44.08;23.92;;;-2.80;86.10;;;;;;5014781;28;20018;-65
2023/01/27 05:18:37;;;;;;;40.72;21.88;;;-2.80;86.40;;;;;;5016573;28;20095;-65
2023/01/27 05:21:04;;;;;;;42.50;22.88;;;-2.80;86.50;;;;;;5015253;28;20427;-66
2023/01/27 05:23:35;;;;;;;51.40;24.30;;;-2.70;86.50;;;;;;5011071;28;20112;-65
2023/01/27 05:26:16;;;;;;;44.67;23.90;;;-2.80;87.10;;;;;;4993812;28;20076;-65
2023/01/27 05:28:43;;;;;;;37.75;20.83;;;-2.80;86.20;;;;;;5009872;28;20446;-65
2023/01/27 05:31:17;;;;;;;51.58;25.23;;;-2.80;86.90;;;;;;5008293;28;20084;-65
2023/01/27 05:33:43;;;;;;;58.95;27.70;;;-2.90;87.00;;;;;;5013100;28;20038;-66
2023/01/27 05:36:12;;;;;;;59.42;28.23;;;-2.90;86.10;;;;;;5012041;28;20038;-65
2023/01/27 05:38:38;;;;;;;53.38;25.73;;;-2.90;85.90;;;;;;5013915;28;20483;-65
2023/01/27 05:41:06;;;;;;;64.70;29.42;;;-2.90;85.10;;;;;;5015001;28;20034;-65
2023/01/27 05:43:33;;;;;;;62.20;29.88;;;-2.90;85.00;;;;;;5014741;28;20025;-65
2023/01/27 05:46:05;;;;;;;52.80;26.60;;;-2.90;84.00;;;;;;5014124;28;20034;-65
2023/01/27 05:48:32;;;;;;;59.13;29.70;;;-2.90;84.30;;;;;;5016180;28;20025;-65
2023/01/27 05:50:58;;;;;;;57.10;28.05;;;-2.80;83.10;;;;;;5014578;28;20083;-64
2023/01/27 05:53:24;;;;;;;63.38;29.45;;;-2.80;84.10;;;;;;5014084;28;20026;-64
2023/01/27 05:55:50;;;;;;;56.72;27.38;;;-2.80;84.60;;;;;;5014065;28;20033;-63
2023/01/27 05:58:16;;;;;;;53.90;28.33;;;-2.80;83.80;;;;;;5015399;28;20026;-65
2023/01/27 06:00:42;;;;;;;59.35;29.20;;;-2.80;83.50;;;;;;5016088;28;20072;-67
2023/01/27 06:03:08;;;;;;;62.78;29.13;;;-2.80;85.00;;;;;;4998750;28;20320;-67
2023/01/27 06:05:33;;;;;;;51.92;27.60;;;-2.80;85.00;;;;;;5015598;28;20032;-66
2023/01/27 06:08:02;;;;;;;63.72;29.35;;;-2.90;84.80;;;;;;5015034;28;20022;-65
2023/01/27 06:10:28;;;;;;;64.50;32.70;;;-2.90;84.60;;;;;;5014026;28;20053;-65
2023/01/27 06:12:54;;;;;;;49.65;24.98;;;-2.90;84.00;;;;;;4998551;28;20029;-65
2023/01/27 06:15:19;;;;;;;52.20;27.08;;;-2.80;83.80;;;;;;5008234;28;20042;-65
2023/01/27 06:17:46;;;;;;;49.35;26.65;;;-2.80;85.30;;;;;;5002533;28;20084;-64
2023/01/27 06:20:11;;;;;;;56.67;28.63;;;-2.90;85.50;;;;;;5015778;28;20034;-65
2023/01/27 06:22:37;;;;;;;44.35;23.95;;;-2.90;86.10;;;;;;5015544;28;20315;-65
2023/01/27 06:25:03;;;;;;;48.78;23.80;;;-2.90;85.50;;;;;;4998605;28;20084;-65
2023/01/27 06:27:28;;;;;;;45.00;23.17;;;-2.90;85.60;;;;;;5016393;28;20457;-65
2023/01/27 06:29:54;;;;;;;48.25;23.98;;;-2.90;86.50;;;;;;5015882;28;20053;-65
2023/01/27 06:32:19;;;;;;;46.80;25.23;;;-2.90;86.60;;;;;;5016237;28;20034;-65
2023/01/27 06:34:45;;;;;;;44.03;24.23;;;-2.80;86.40;;;;;;5007075;28;20137;-65
2023/01/27 06:37:10;;;;;;;47.75;24.85;;;-2.80;86.60;;;;;;5015100;28;20022;-64
2023/01/27 06:39:36;;;;;;;42.15;24.10;;;-2.80;87.50;;;;;;5015497;28;20113;-65
2023/01/27 06:42:06;;;;;;;38.25;21.20;;;-2.80;86.30;;;;;;5016459;28;20401;-65
2023/01/27 06:44:31;;;;;;;41.47;23.40;;;-2.80;86.10;;;;;;4997165;28;20028;-65
2023/01/27 06:46:57;;;;;;;61.05;28.75;;;-2.80;86.10;;;;;;5012529;28;20112;-65
2023/01/27 06:49:23;;;;;;;61.08;28.85;;;-2.80;87.40;;;;;;5013063;28;20410;-66
2023/01/27 06:51:48;;;;;;;63.70;29.77;;;-2.80;87.00;;;;;;5011716;28;20061;-66
2023/01/27 06:54:14;;;;;;;59.22;27.90;;;-2.90;86.50;;;;;;5012144;28;20096;-65
2023/01/27 06:56:39;;;;;;;54.67;25.83;;;-2.90;85.40;;;;;;5014023;28;20079;-65
2023/01/27 06:59:05;;;;;;;45.47;23.85;;;-2.90;86.10;;;;;;5014066;28;20033;-65
2023/01/27 07:01:30;;;;;;;46.78;23.50;;;-2.80;85.90;;;;;;5015786;28;20018;-65
2023/01/27 07:03:56;;;;;;;38.13;21.33;;;-2.90;86.20;;;;;;5011826;28;20022;-65
2023/01/27 07:06:21;;;;;;;48.20;23.80;;;-2.90;87.60;;;;;;5014079;28;20097;-65
2023/01/27 07:08:49;;;;;;;49.10;25.20;;;-2.90;88.00;;;;;;5011389;28;20454;-65
2023/01/27 07:11:14;;;;;;;41.38;22.40;;;-2.90;86.70;;;;;;5009467;28;20061;-65
2023/01/27 07:13:40;;;;;;;41.85;21.50;;;-2.90;87.10;;;;;;4998514;28;20312;-65
2023/01/27 07:16:06;;;;;;;45.28;23.45;;;-2.90;86.90;;;;;;5007505;28;20083;-65
2023/01/27 07:18:31;;;;;;;47.65;25.20;;;-2.90;87.20;;;;;;5014394;28;20033;-65
2023/01/27 07:20:57;;;;;;;45.22;23.85;;;-3.00;87.30;;;;;;5014831;28;20030;-65
2023/01/27 07:23:22;;;;;;;43.53;21.25;;;-3.00;86.20;;;;;;5013727;28;20030;-65
2023/01/27 07:25:48;;;;;;;40.08;20.80;;;-3.00;86.30;;;;;;5016302;28;20101;-65
2023/01/27 07:28:14;;;;;;;40.20;22.92;;;-2.90;85.60;;;;;;5014058;28;20026;-65
2023/01/27 07:30:39;;;;;;;41.70;23.65;;;-2.90;85.70;;;;;;5016082;28;20025;-65
2023/01/27 07:33:08;;;;;;;43.25;23.60;;;-2.80;86.50;;;;;;5013987;28;20216;-65
2023/01/27 07:35:35;;;;;;;38.33;20.25;;;-2.80;85.80;;;;;;5013302;28;20053;-65
2023/01/27 07:38:00;;;;;;;44.78;23.65;;;-2.70;86.20;;;;;;5010945;28;20117;-65
2023/01/27 07:40:26;;;;;;;41.90;22.65;;;-2.70;88.00;;;;;;4996188;28;20105;-65
2023/01/27 07:42:51;;;;;;;57.38;27.73;;;-2.80;87.90;;;;;;4997379;28;20081;-65
2023/01/27 07:45:17;;;;;;;37.78;21.20;;;-2.80;87.50;;;;;;5015963;28;20089;-66
2023/01/27 07:47:45;;;;;;;53.85;28.27;;;-2.80;86.30;;;;;;5013761;28;20310;-65
2023/01/27 07:50:11;;;;;;;46.85;25.13;;;-2.80;86.70;;;;;;5015918;28;20040;-65
2023/01/27 07:52:36;;;;;;;43.85;24.30;;;-2.80;86.30;;;;;;4983378;28;20124;-65
2023/01/27 07:55:02;;;;;;;54.13;25.98;;;-2.80;86.20;;;;;;5013327;28;20045;-65
2023/01/27 07:57:28;;;;;;;45.17;24.17;;;-2.80;87.40;;;;;;5014853;28;20033;-65
2023/01/27 07:59:56;;;;;;;45.15;24.70;;;-2.80;86.90;;;;;;5015627;28;20061;-65
2023/01/27 08:02:23;;;;;;;60.40;32.67;;;-2.80;85.60;;;;;;5015009;28;20101;-65
2023/01/27 08:04:51;;;;;;;40.05;21.42;;;-2.70;86.00;;;;;;5013918;28;20457;-65
2023/01/27 08:07:17;;;;;;;39.65;22.58;;;-2.70;85.10;;;;;;5022555;28;20029;-65
2023/01/27 08:09:42;;;;;;;46.45;25.95;;;-2.70;85.60;;;;;;5019898;28;20373;-65
2023/01/27 08:12:08;;;;;;;65.18;34.97;;;-2.60;86.50;;;;;;5019239;28;20061;-65
2023/01/27 08:14:33;;;;;;;49.45;28.05;;;-2.60;87.70;;;;;;5019460;28;20101;-65
2023/01/27 08:17:00;;;;;;;49.20;25.60;;;-2.60;86.20;;;;;;5019409;28;20030;-65
2023/01/27 08:19:26;;;;;;;50.17;29.25;;;-2.60;86.60;;;;;;5019402;28;20029;-65
2023/01/27 08:21:51;;;;;;;54.65;29.02;;;-2.60;87.70;;;;;;5017979;28;20026;-65
2023/01/27 08:24:17;;;;;;;56.95;31.63;;;-2.70;87.30;;;;;;5018417;28;20040;-65
2023/01/27 08:26:43;;;;;;;53.97;29.13;;;-2.60;86.80;;;;;;5019175;28;20033;-65
2023/01/27 08:29:08;;;;;;;61.08;31.13;;;-2.70;87.50;;;;;;5017960;28;20034;-65
2023/01/27 08:31:34;;;;;;;52.60;29.63;;;-2.70;87.00;;;;;;5019177;28;20039;-65
2023/01/27 08:33:59;;;;;;;54.17;29.85;;;-2.60;85.80;;;;;;5017582;28;20117;-65
2023/01/27 08:36:25;;;;;;;60.03;32.50;;;-2.60;86.90;;;;;;5016324;28;20030;-65
2023/01/27 08:38:51;;;;;;;53.90;30.70;;;-2.60;86.50;;;;;;5016958;28;20084;-65
2023/01/27 08:41:24;;;;;;;53.28;28.23;;;-2.60;85.60;;;;;;5001464;28;20026;-65
2023/01/27 08:43:49;;;;;;;52.30;28.33;;;-2.50;85.90;;;;;;5017914;28;20033;-65
2023/01/27 08:46:18;;;;;;;58.00;24.95;;;-2.50;87.10;;;;;;5017240;28;20284;-64
2023/01/27 08:48:44;;;;;;;53.47;29.20;;;-2.60;87.20;;;;;;5018016;28;20097;-64
2023/01/27 08:51:12;;;;;;;50.80;26.67;;;-2.60;87.50;;;;;;5000863;28;20118;-64
2023/01/27 08:53:39;;;;;;;40.50;23.85;;;-2.60;86.90;;;;;;5015996;28;20053;-65
2023/01/27 08:56:07;;;;;;;54.55;27.77;;;-2.60;86.50;;;;;;5017930;28;20025;-66
2023/01/27 08:58:33;;;;;;;51.05;27.30;;;-2.60;87.10;;;;;;5016948;28;20038;-66
2023/01/27 09:01:03;;;;;;;46.80;23.73;;;-2.70;86.90;;;;;;5018346;28;20076;-65
2023/01/27 09:03:30;;;;;;;55.70;29.95;;;-2.60;86.80;;;;;;5017338;28;20025;-65
2023/01/27 09:05:56;;;;;;;55.92;27.80;;;-2.60;88.20;;;;;;5016994;28;20050;-65
2023/01/27 09:08:22;;;;;;;51.17;27.52;;;-2.70;87.10;;;;;;5017037;28;20084;-65
2023/01/27 09:10:47;;;;;;;52.15;28.25;;;-2.60;87.10;;;;;;5018328;28;20050;-65
2023/01/27 09:13:13;;;;;;;42.08;22.58;;;-2.60;87.60;;;;;;5018208;28;20148;-65
2023/01/27 09:15:39;;;;;;;39.10;21.88;;;-2.60;88.40;;;;;;5018223;28;20033;-65
2023/01/27 09:18:05;;;;;;;37.17;19.58;;;-2.60;88.70;;;;;;5017281;28;20153;-65
2023/01/27 09:20:33;;;;;;;41.50;22.33;;;-2.60;88.60;;;;;;5018069;28;20121;-65
2023/01/27 09:22:58;;;;;;;34.42;17.55;;;-2.50;88.50;;;;;;5017029;28;20513;-65
2023/01/27 09:25:24;;;;;;;42.90;21.75;;;-2.50;88.70;;;;;;5018020;28;20057;-65
2023/01/27 09:27:54;;;;;;;42.42;23.67;;;-2.50;89.70;;;;;;5017961;28;20053;-65
2023/01/27 09:30:20;;;;;;;36.30;19.75;;;-2.50;89.60;;;;;;5017857;28;20108;-65
2023/01/27 09:32:46;;;;;;;42.38;22.25;;;-2.50;91.60;;;;;;5017086;28;20038;-65
2023/01/27 09:35:11;;;;;;;33.60;18.00;;;-2.60;90.80;;;;;;5017982;28;20424;-65
2023/01/27 09:37:44;;;;;;;38.97;21.00;;;-2.50;90.00;;;;;;5016547;28;20030;-65
2023/01/27 09:40:23;;;;;;;71.53;38.45;;;-2.50;91.40;;;;;;5017805;28;20051;-65
2023/01/27 09:43:22;;;;;;;44.90;21.98;;;-2.40;91.50;;;;;;5017792;28;20025;-65
2023/01/27 09:45:56;;;;;;;48.03;26.38;;;-2.40;90.30;;;;;;5017064;28;20300;-65
2023/01/27 09:48:45;;;;;;;49.30;26.88;;;-2.30;91.10;;;;;;5002964;28;20026;-65
2023/01/27 09:51:23;;;;;;;47.22;26.27;;;-2.40;91.90;;;;;;5017500;28;20018;-65
2023/01/27 09:54:06;;;;;;;48.40;29.27;;;-2.40;91.20;;;;;;5016365;28;20022;-65
2023/01/27 09:56:34;;;;;;;39.50;21.48;;;-2.30;91.60;;;;;;5017677;28;20022;-65
2023/01/27 09:59:12;;;;;;;39.58;22.48;;;-2.30;93.20;;;;;;5017473;28;20030;-65
2023/01/27 10:01:41;;;;;;;46.15;24.85;;;-2.30;92.80;;;;;;4995246;28;20444;-64
2023/01/27 10:04:24;;;;;;;32.80;18.00;;;-2.30;93.50;;;;;;5010697;28;20033;-65
2023/01/27 10:07:25;;;;;;;46.65;24.15;;;-2.20;94.10;;;;;;5012773;28;20025;-65
2023/01/27 10:10:01;;;;;;;40.13;20.05;;;-2.30;93.40;;;;;;5017244;28;20030;-65
2023/01/27 10:12:45;;;;;;;42.60;21.73;;;-2.30;94.30;;;;;;5017216;28;20485;-65
2023/01/27 10:15:38;;;;;;;46.47;25.20;;;-2.30;93.70;;;;;;5016998;28;20041;-65
2023/01/27 10:18:36;;;;;;;31.70;19.45;;;-2.30;93.90;;;;;;5013131;28;20033;-65
2023/01/27 10:21:24;;;;;;;37.30;20.02;;;-2.30;92.60;;;;;;5006017;28;20111;-65
2023/01/27 10:24:18;;;;;;;31.35;16.98;;;-2.20;93.70;;;;;;4975368;28;20121;-65
2023/01/27 10:27:02;;;;;;;42.50;22.05;;;-2.30;96.40;;;;;;4997389;28;20027;-64
2023/01/27 10:29:38;;;;;;;26.40;16.15;;;-2.30;95.60;;;;;;4997649;28;20077;-65
2023/01/27 10:32:07;;;;;;;38.22;19.50;;;-2.20;94.60;;;;;;5023468;28;20096;-65
2023/01/27 10:34:43;;;;;;;28.73;17.15;;;-2.10;95.80;;;;;;5021674;28;20149;-65
2023/01/27 10:37:42;;;;;;;33.53;19.45;;;-2.10;96.70;;;;;;5013023;28;20033;-65
2023/01/27 10:40:15;;;;;;;33.95;20.15;;;-2.10;97.30;;;;;;4997847;28;20116;-65
2023/01/27 10:42:47;;;;;;;37.40;20.07;;;-2.30;98.00;;;;;;5016627;28;20415;-65
2023/01/27 10:45:32;;;;;;;30.73;16.85;;;-2.30;98.00;;;;;;5016676;28;20030;-65
2023/01/27 10:48:06;;;;;;;33.95;20.02;;;-2.30;98.00;;;;;;5016429;28;20029;-65
2023/01/27 10:50:40;;;;;;;37.72;21.58;;;-2.30;97.80;;;;;;5016494;28;20026;-65
2023/01/27 10:53:12;;;;;;;34.45;20.25;;;-2.30;97.20;;;;;;5014445;28;20026;-65
2023/01/27 10:55:45;;;;;;;28.42;16.05;;;-2.20;96.80;;;;;;5014142;28;20033;-65
2023/01/27 10:58:20;;;;;;;30.73;17.52;;;-2.20;97.50;;;;;;4997389;28;20076;-65
2023/01/27 11:00:50;;;;;;;30.08;17.40;;;-2.10;97.40;;;;;;5030963;28;20307;-65
2023/01/27 11:03:42;;;;;;;26.55;16.08;;;-2.10;98.00;;;;;;5033933;28;20105;-65
2023/01/27 11:06:18;;;;;;;28.25;16.58;;;-2.00;98.00;;;;;;5016347;28;20022;-65
2023/01/27 11:08:51;;;;;;;34.55;19.27;;;-1.80;98.00;;;;;;5013427;28;20025;-65
2023/01/27 11:14:09;;;;;;;36.95;21.52;;;-1.80;98.00;;;;;;5016553;28;20206;-65
2023/01/27 11:16:38;;;;;;;32.20;20.77;;;-1.90;98.00;;;;;;5015871;28;20026;-65
2023/01/27 11:19:31;;;;;;;36.70;20.13;;;-2.00;98.00;;;;;;5013862;28;20339;-65
2023/01/27 11:22:01;;;;;;;30.08;17.35;;;-2.00;98.00;;;;;;5012653;28;20034;-65
2023/01/27 11:24:43;;;;;;;30.45;19.17;;;-1.90;98.00;;;;;;5016178;28;20022;-65
2023/01/27 11:27:39;;;;;;;34.85;19.10;;;-1.80;98.00;;;;;;5015132;28;20026;-65
2023/01/27 11:30:24;;;;;;;32.78;19.02;;;-1.90;98.00;;;;;;4975826;28;20056;-65
2023/01/27 11:33:05;;;;;;;37.53;19.60;;;-2.00;98.00;;;;;;5015780;28;20424;-65
2023/01/27 11:35:33;;;;;;;30.48;17.67;;;-2.00;98.00;;;;;;5014542;28;20118;-65
2023/01/27 11:38:02;;;;;;;31.58;19.23;;;-2.00;98.00;;;;;;5014668;28;20491;-65
2023/01/27 11:40:31;;;;;;;32.35;18.73;;;-2.10;98.00;;;;;;5017194;28;20033;-65
2023/01/27 11:42:58;;;;;;;36.10;20.73;;;-2.00;98.00;;;;;;5019959;28;20105;-64
2023/01/27 11:45:26;;;;;;;33.92;21.20;;;-1.90;98.00;;;;;;5019702;28;20021;-64
2023/01/27 11:47:58;;;;;;;38.58;22.88;;;-1.90;98.00;;;;;;5019937;28;20018;-64
2023/01/27 11:50:31;;;;;;;41.88;22.85;;;-1.70;98.00;;;;;;5018511;28;20029;-67
2023/01/27 11:53:15;;;;;;;47.63;24.70;;;-1.80;98.00;;;;;;5017969;28;20061;-67
2023/01/27 11:56:02;;;;;;;51.63;26.52;;;-1.80;98.00;;;;;;5019700;28;20026;-66
2023/01/27 11:59:03;;;;;;;55.22;26.13;;;-2.00;97.40;;;;;;5002204;28;20029;-65
2023/01/27 12:01:46;;;;;;;57.45;27.80;;;-2.00;97.30;;;;;;5019633;28;20030;-65
2023/01/27 12:04:40;;;;;;;46.63;25.50;;;-2.00;96.10;;;;;;5019710;28;20057;-65
2023/01/27 12:07:18;;;;;;;46.93;24.17;;;-1.90;96.20;;;;;;4993263;28;20025;-65
2023/01/27 12:09:44;;;;;;;40.22;23.08;;;-1.70;97.30;;;;;;5019410;28;20033;-65
2023/01/27 12:12:12;;;;;;;45.28;25.52;;;-1.60;98.00;;;;;;5019403;28;20443;-65
2023/01/27 12:14:48;;;;;;;47.38;25.17;;;-1.60;98.00;;;;;;5019487;28;20026;-65
2023/01/27 12:17:21;;;;;;;49.75;26.63;;;-1.70;98.00;;;;;;5019318;28;20080;-65
2023/01/27 12:19:48;;;;;;;46.55;25.15;;;-1.60;97.80;;;;;;5001264;28;20105;-65
2023/01/27 12:22:32;;;;;;;46.80;25.35;;;-1.70;98.00;;;;;;5018077;28;20084;-65
2023/01/27 12:25:01;;;;;;;47.55;23.88;;;-1.70;98.00;;;;;;5019266;28;20033;-65
2023/01/27 12:27:30;;;;;;;48.50;25.02;;;-1.80;97.90;;;;;;5019234;28;20030;-65
2023/01/27 12:30:03;;;;;;;46.97;26.17;;;-1.80;97.10;;;;;;5019119;28;20076;-65
2023/01/27 12:32:41;;;;;;;53.40;27.85;;;-1.70;97.10;;;;;;5019089;28;20026;-65
2023/01/27 12:35:22;;;;;;;45.25;22.85;;;-1.70;98.00;;;;;;5017637;28;20378;-65
2023/01/27 12:37:53;;;;;;;42.28;22.23;;;-1.70;98.00;;;;;;5017882;28;20029;-65
2023/01/27 12:40:27;;;;;;;42.92;22.40;;;-1.60;97.00;;;;;;5001598;28;20335;-65
2023/01/27 12:43:21;;;;;;;39.35;21.88;;;-1.40;97.80;;;;;;5019020;28;20026;-65
2023/01/27 12:46:04;;;;;;;48.58;24.33;;;-1.30;98.00;;;;;;5018930;28;20025;-65
2023/01/27 12:48:32;;;;;;;47.35;24.45;;;-1.40;98.00;;;;;;5016929;28;20105;-65
2023/01/27 12:51:14;;;;;;;43.53;23.02;;;-1.40;98.00;;;;;;5015967;28;20148;-65
2023/01/27 12:53:42;;;;;;;48.90;24.20;;;-1.30;98.00;;;;;;4998182;28;20044;-65
2023/01/27 12:56:13;;;;;;;46.05;23.77;;;-1.40;98.00;;;;;;5017093;28;20423;-65
2023/01/27 12:59:02;;;;;;;37.67;20.80;;;-1.50;98.00;;;;;;5018468;28;20090;-65
2023/01/27 13:01:37;;;;;;;54.88;27.55;;;-1.40;98.00;;;;;;5016444;28;20037;-65
2023/01/27 13:04:04;;;;;;;45.33;23.45;;;-1.40;98.00;;;;;;5013269;28;20419;-65
2023/01/27 13:06:40;;;;;;;44.63;22.75;;;-1.40;98.00;;;;;;5016742;28;20034;-65
2023/01/27 13:09:31;;;;;;;50.83;25.33;;;-1.20;98.00;;;;;;5017791;28;20103;-65
2023/01/27 13:12:19;;;;;;;44.08;22.35;;;-1.10;98.00;;;;;;5016951;28;20339;-65
2023/01/27 13:14:55;;;;;;;41.80;21.40;;;-1.10;98.00;;;;;;5001260;28;20037;-65